Airfield :







YOU CAN JOIN US ON...

 
LOGIN :

Register | Disclaimer

   EN    FR    IT 

 









Legend :    VFR   Marginal VFR   IFR   Intensive IFR   Very Intensive IFR
Visi :
Ceiling :
>= 8 km
>= 3000ft
5 to 8 km
1000 to 3000 ft
1500m to 5 km
500 to 1000 ft
800 to 1500m
200 to 500 ft
< 800m
< 200 ft
Symbols :   Thunderstorms  Fog  Heavy snow  Heavy precipitations  Wind > 20 kt







- Airport Elevation : 477 ft
- IATA code : YHZ


CYHZ - Halifax Stanfield Int.

CURRENT METAR :
  • 261000Z 12007KT 15SM OVC170 10/03 A3002 RMK AC8 SLP168

EXPIRED METARs :
  • 260900Z 11005KT 15SM OVC190 09/03 A3003 RMK CS8 SLP171
  • 260800Z 36003KT 15SM OVC190 10/02 A3003 RMK CS8 SLP172

TAF TAF CYHZ
Valid from the 26 at 09:00 until the 27 at 06:00 UTC


260838Z 2609/2706 VRB03KT P6SM BKN180
FM261300 14010KT P6SM OVC100
FM261700 18012KT P6SM -RA SCT020 BKN040
TEMPO 2617/2622 6SM -RA BR BKN020 OVC040
FM262200 16012KT 5SM -RA BR OVC006
PROB30 2704/2706 1SM -DZ BR OVC003 RMK NXT FCST BY 261200Z
CZQM FIR / North America



MET'MAP, your aeronautical weather chart ! - Copyright ORBIFLY December 2007 - Disclaimer

ORBIFLY MET'MAP TEAM :

Programming & Development : Alexandra Zaïnal
Concept & Development : Baudouin d'Aumeries
Co-Development & Prog : Marc-Olivier Méhu
Technical & hardware support : Manuel Goepfert

Contact : metmap@orbifly.com




SOURCES & CREDITS :

   NOAA